Time;durP1;ratioP1;P1;durP2;ratioP2;P2;SDS_P1;SDS_P2;PMS_P1;PMS_P2;Temp;Humidity;BMP_temperature;BMP_pressure;BME280_temperature;BME280_humidity;BME280_pressure;Samples;Min_cycle;Max_cycle;Signal;HPM_P1;HPM_P2
2022/01/28 00:02:28;;;;;;;7.03;1.63;;;;;;;;;;5010724;28;20223;-40
2022/01/28 00:04:55;;;;;;;14.13;1.77;;;;;;;;;;5006645;28;20232;-41
2022/01/28 00:07:22;;;;;;;7.88;1.95;;;;;;;;;;4990954;28;20236;-41
2022/01/28 00:09:49;;;;;;;7.40;1.95;;;;;;;;;;4975191;28;20696;-40
2022/01/28 00:12:16;;;;;;;9.82;2.10;;;;;;;;;;4974858;28;20227;-41
2022/01/28 00:15:03;;;;;;;13.23;2.72;;;;;;;;;;4979363;28;20232;-41
2022/01/28 00:39:25;;;;;;;17.40;3.47;;;;;;;;;;4995877;28;20438;-40
2022/01/28 00:41:52;;;;;;;16.42;3.05;;;;;;;;;;4994638;28;20235;-40
2022/01/28 00:44:19;;;;;;;16.73;3.83;;;;;;;;;;4999621;28;20232;-40
2022/01/28 00:46:46;;;;;;;12.20;2.50;;;;;;;;;;4991709;28;20235;-39
2022/01/28 00:49:13;;;;;;;20.17;3.60;;;;;;;;;;4984628;28;20439;-40
2022/01/28 00:51:40;;;;;;;20.50;3.28;;;;;;;;;;4985273;28;20232;-40
2022/01/28 00:54:07;;;;;;;20.45;3.53;;;;;;;;;;4984861;28;20718;-41
2022/01/28 00:56:34;;;;;;;17.63;3.42;;;;;;;;;;4998703;28;20912;-38
2022/01/28 00:59:01;;;;;;;13.85;2.42;;;;;;;;;;4998698;28;20239;-39
2022/01/28 01:01:29;;;;;;;18.08;3.80;;;;;;;;;;5017029;28;20443;-39
2022/01/28 01:03:56;;;;;;;16.48;3.10;;;;;;;;;;5006003;28;21352;-40
2022/01/28 01:06:23;;;;;;;15.32;2.47;;;;;;;;;;5000188;28;20236;-39
2022/01/28 01:08:50;;;;;;;14.35;2.80;;;;;;;;;;5007699;28;20226;-39
2022/01/28 01:11:20;;;;;;;16.27;2.17;;;;;;;;;;4990457;28;20718;-37
2022/01/28 01:13:47;;;;;;;16.83;2.67;;;;;;;;;;4992592;28;20228;-37
2022/01/28 01:16:18;;;;;;;14.00;3.17;;;;;;;;;;4988392;28;20781;-39
2022/01/28 01:19:13;;;;;;;14.60;2.72;;;;;;;;;;4990212;28;20244;-37
2022/01/28 01:21:42;;;;;;;18.80;2.65;;;;;;;;;;4987905;28;20224;-38
2022/01/28 01:24:11;;;;;;;12.25;2.60;;;;;;;;;;4985867;28;20236;-38
2022/01/28 01:26:40;;;;;;;10.18;2.30;;;;;;;;;;4991027;28;20227;-39
2022/01/28 01:29:11;;;;;;;13.45;2.90;;;;;;;;;;4992340;28;20240;-39
2022/01/28 01:31:41;;;;;;;9.88;2.35;;;;;;;;;;4998108;28;20698;-39
2022/01/28 01:34:18;;;;;;;7.57;1.80;;;;;;;;;;5012298;28;20220;-37
2022/01/28 01:36:45;;;;;;;10.60;2.47;;;;;;;;;;4995095;28;20243;-37
2022/01/28 01:39:16;;;;;;;9.65;1.90;;;;;;;;;;4975506;28;20232;-39
2022/01/28 01:41:49;;;;;;;10.90;2.22;;;;;;;;;;4973349;28;20718;-38
2022/01/28 01:44:26;;;;;;;9.43;1.98;;;;;;;;;;4973470;28;20232;-38
2022/01/28 01:52:26;;;;;;;10.52;1.75;;;;;;;;;;4993385;28;20220;-38
2022/01/28 01:54:54;;;;;;;7.32;1.75;;;;;;;;;;4992897;28;20219;-38
2022/01/28 01:57:21;;;;;;;7.90;1.92;;;;;;;;;;4993258;28;20239;-38
2022/01/28 01:59:48;;;;;;;9.88;1.98;;;;;;;;;;4987140;28;20237;-38
2022/01/28 02:02:15;;;;;;;8.82;1.77;;;;;;;;;;5008605;28;20232;-40
2022/01/28 02:04:42;;;;;;;7.68;1.70;;;;;;;;;;5013870;28;21079;-37
2022/01/28 02:07:09;;;;;;;8.05;1.85;;;;;;;;;;4978049;28;20240;-37
2022/01/28 02:09:36;;;;;;;6.97;1.58;;;;;;;;;;4978023;28;20244;-39
2022/01/28 02:12:03;;;;;;;7.88;1.50;;;;;;;;;;4988024;28;20234;-38
2022/01/28 02:14:30;;;;;;;6.65;1.63;;;;;;;;;;4992443;28;20232;-38
2022/01/28 02:16:58;;;;;;;7.93;1.80;;;;;;;;;;5007813;28;20957;-39
2022/01/28 02:19:26;;;;;;;5.47;1.77;;;;;;;;;;5012055;28;20289;-39
2022/01/28 02:21:56;;;;;;;7.40;1.40;;;;;;;;;;5002196;28;20228;-38
2022/01/28 02:24:32;;;;;;;8.77;1.67;;;;;;;;;;4992833;28;20238;-38
2022/01/28 02:26:59;;;;;;;7.90;1.70;;;;;;;;;;4992596;28;21050;-38
2022/01/28 02:29:29;;;;;;;9.63;2.03;;;;;;;;;;4992320;28;20228;-38
2022/01/28 02:31:56;;;;;;;5.55;1.60;;;;;;;;;;4998476;28;20620;-38
2022/01/28 02:34:24;;;;;;;11.63;2.30;;;;;;;;;;4974029;28;20240;-38
2022/01/28 02:36:51;;;;;;;5.82;1.42;;;;;;;;;;4988069;28;20290;-38
2022/01/28 02:39:18;;;;;;;9.15;2.15;;;;;;;;;;4995495;28;20240;-38
2022/01/28 02:41:48;;;;;;;7.97;2.13;;;;;;;;;;4996204;28;20228;-37
2022/01/28 02:44:21;;;;;;;6.85;1.75;;;;;;;;;;4986301;28;20236;-38
2022/01/28 02:47:01;;;;;;;7.90;1.75;;;;;;;;;;4990432;28;20231;-38
2022/01/28 02:49:34;;;;;;;8.43;1.48;;;;;;;;;;4995820;28;20314;-38
2022/01/28 02:52:02;;;;;;;8.27;1.60;;;;;;;;;;4995532;28;20310;-37
2022/01/28 02:54:30;;;;;;;8.80;1.90;;;;;;;;;;4994789;28;20232;-38
2022/01/28 02:57:02;;;;;;;7.25;1.60;;;;;;;;;;4995398;28;20220;-37
2022/01/28 02:59:29;;;;;;;3.90;1.42;;;;;;;;;;4995655;28;20244;-39
2022/01/28 03:01:56;;;;;;;4.65;1.38;;;;;;;;;;5011388;28;20732;-39
2022/01/28 03:05:03;;;;;;;5.10;1.50;;;;;;;;;;4998939;28;20252;-37
2022/01/28 03:07:28;;;;;;;6.90;1.77;;;;;;;;;;4976810;28;20232;-39
2022/01/28 03:12:47;;;;;;;6.82;1.23;;;;;;;;;;4976951;28;20235;-37
2022/01/28 03:15:20;;;;;;;5.35;1.30;;;;;;;;;;4998313;28;20219;-37
2022/01/28 03:17:53;;;;;;;5.18;1.17;;;;;;;;;;4988128;28;20232;-37
2022/01/28 03:22:47;;;;;;;7.97;1.88;;;;;;;;;;4978762;23;20612;-34
2022/01/28 03:25:15;;;;;;;9.93;1.73;;;;;;;;;;4974982;28;20233;-42
2022/01/28 03:27:57;;;;;;;4.53;1.52;;;;;;;;;;4973785;28;20229;-38
2022/01/28 03:30:24;;;;;;;4.85;1.42;;;;;;;;;;4976643;28;20236;-42
2022/01/28 03:32:51;;;;;;;6.18;1.35;;;;;;;;;;4994298;28;20231;-39
2022/01/28 03:35:34;;;;;;;7.00;1.80;;;;;;;;;;4994883;28;20314;-40
2022/01/28 03:38:03;;;;;;;5.40;1.40;;;;;;;;;;4995862;28;20212;-41
2022/01/28 03:40:35;;;;;;;5.55;1.20;;;;;;;;;;4973356;28;20711;-41
2022/01/28 03:43:02;;;;;;;8.40;1.42;;;;;;;;;;4974840;28;20235;-38
2022/01/28 03:45:29;;;;;;;5.22;1.40;;;;;;;;;;4978166;28;20236;-39
2022/01/28 03:47:56;;;;;;;5.13;1.48;;;;;;;;;;4994476;28;20224;-39
2022/01/28 03:50:23;;;;;;;7.50;1.35;;;;;;;;;;4982875;28;20257;-39
2022/01/28 03:52:50;;;;;;;5.32;1.45;;;;;;;;;;4974706;28;20229;-40
2022/01/28 03:55:17;;;;;;;7.03;1.55;;;;;;;;;;4973891;28;20233;-39
2022/01/28 03:57:44;;;;;;;7.15;1.50;;;;;;;;;;4974490;28;20669;-38
2022/01/28 04:00:11;;;;;;;8.05;1.67;;;;;;;;;;4974130;28;20710;-37
2022/01/28 04:02:42;;;;;;;5.45;1.48;;;;;;;;;;4954950;28;20229;-40
2022/01/28 04:06:14;;;;;;;7.30;1.40;;;;;;;;;;4955278;28;20655;-40
2022/01/28 04:13:51;;;;;;;7.20;1.40;;;;;;;;;;4974175;28;20225;-41
2022/01/28 04:16:32;;;;;;;5.07;1.25;;;;;;;;;;4984322;28;20230;-42
2022/01/28 04:19:03;;;;;;;4.95;1.30;;;;;;;;;;4993841;28;20220;-36
2022/01/28 04:21:30;;;;;;;5.43;1.38;;;;;;;;;;4980507;28;20253;-42
2022/01/28 04:23:57;;;;;;;10.02;1.40;;;;;;;;;;4973376;28;20240;-40
2022/01/28 04:26:24;;;;;;;4.47;1.40;;;;;;;;;;4974376;28;20225;-42
2022/01/28 04:28:51;;;;;;;6.25;1.48;;;;;;;;;;4974235;28;20592;-37
2022/01/28 04:31:18;;;;;;;4.30;1.30;;;;;;;;;;4971149;28;20249;-41
2022/01/28 04:33:45;;;;;;;5.75;1.25;;;;;;;;;;4973313;28;20230;-35
2022/01/28 04:36:15;;;;;;;6.97;1.48;;;;;;;;;;4974140;28;20966;-42
2022/01/28 04:41:21;;;;;;;5.05;1.15;;;;;;;;;;4973538;28;20241;-38
2022/01/28 04:44:03;;;;;;;3.58;0.95;;;;;;;;;;4973852;28;20232;-41
2022/01/28 04:46:42;;;;;;;4.82;1.30;;;;;;;;;;4984507;28;20315;-39
2022/01/28 04:49:35;;;;;;;3.88;1.08;;;;;;;;;;4993342;28;20748;-42
2022/01/28 04:52:43;;;;;;;3.63;1.00;;;;;;;;;;4990818;28;20228;-41
2022/01/28 04:55:15;;;;;;;3.95;0.85;;;;;;;;;;4973503;28;20256;-38
2022/01/28 05:00:27;;;;;;;3.22;1.23;;;;;;;;;;4956597;28;20228;-43
2022/01/28 05:27:42;;;;;;;5.85;1.30;;;;;;;;;;4938259;28;20267;-42
2022/01/28 05:30:09;;;;;;;3.00;0.95;;;;;;;;;;4970318;28;20236;-42
2022/01/28 05:32:36;;;;;;;4.78;1.25;;;;;;;;;;4973796;28;20240;-40
2022/01/28 05:35:03;;;;;;;5.78;1.45;;;;;;;;;;4973133;28;20237;-41
2022/01/28 05:37:30;;;;;;;3.20;1.00;;;;;;;;;;4972938;28;20983;-39
2022/01/28 05:39:59;;;;;;;3.28;0.80;;;;;;;;;;4971367;28;20237;-38
2022/01/28 05:42:26;;;;;;;2.92;1.00;;;;;;;;;;4972712;28;20722;-42
2022/01/28 05:44:53;;;;;;;4.57;1.40;;;;;;;;;;4973156;28;20308;-44
2022/01/28 05:47:21;;;;;;;4.68;1.05;;;;;;;;;;4991368;28;20220;-40
2022/01/28 05:49:48;;;;;;;4.05;1.20;;;;;;;;;;4992329;28;20220;-41
2022/01/28 05:52:15;;;;;;;3.65;0.88;;;;;;;;;;4971597;28;20244;-39
2022/01/28 05:54:42;;;;;;;4.72;1.02;;;;;;;;;;4972911;28;20236;-39
2022/01/28 05:57:09;;;;;;;3.95;0.90;;;;;;;;;;4972928;28;20213;-43
2022/01/28 05:59:36;;;;;;;4.75;1.25;;;;;;;;;;4973021;28;20217;-42
2022/01/28 06:02:03;;;;;;;5.05;1.10;;;;;;;;;;4980065;28;20241;-42
2022/01/28 06:04:30;;;;;;;4.53;0.90;;;;;;;;;;4972122;28;20244;-40
2022/01/28 06:06:57;;;;;;;2.90;1.00;;;;;;;;;;4972711;28;20232;-41
2022/01/28 06:09:24;;;;;;;4.32;1.35;;;;;;;;;;4972922;28;20232;-42
2022/01/28 06:11:51;;;;;;;2.40;1.10;;;;;;;;;;4971812;28;20904;-42
2022/01/28 06:14:18;;;;;;;3.15;1.10;;;;;;;;;;4972035;28;20232;-37
2022/01/28 06:16:45;;;;;;;3.17;0.93;;;;;;;;;;4986127;28;20236;-40
2022/01/28 06:19:12;;;;;;;3.67;1.05;;;;;;;;;;4992175;28;20231;-42
2022/01/28 06:21:39;;;;;;;5.10;1.00;;;;;;;;;;4991902;28;20232;-43
2022/01/28 06:24:06;;;;;;;4.00;1.25;;;;;;;;;;4983372;28;20243;-37
2022/01/28 06:26:33;;;;;;;2.97;0.90;;;;;;;;;;4972820;28;20221;-41
2022/01/28 06:29:00;;;;;;;3.78;0.93;;;;;;;;;;4972061;28;20229;-41
2022/01/28 06:31:27;;;;;;;6.60;1.10;;;;;;;;;;4975299;28;20221;-42
2022/01/28 06:33:54;;;;;;;2.33;0.88;;;;;;;;;;4972652;28;20221;-39
2022/01/28 06:36:21;;;;;;;2.90;0.80;;;;;;;;;;4971464;28;20715;-39
2022/01/28 06:38:48;;;;;;;3.10;0.70;;;;;;;;;;4972300;28;20767;-40
2022/01/28 06:41:15;;;;;;;3.08;0.90;;;;;;;;;;4972582;28;20245;-37
2022/01/28 06:43:42;;;;;;;3.88;1.02;;;;;;;;;;4972491;28;20759;-40
2022/01/28 06:46:09;;;;;;;4.22;0.90;;;;;;;;;;4971644;28;20249;-39
2022/01/28 06:48:36;;;;;;;4.07;1.10;;;;;;;;;;4972714;28;20240;-40
2022/01/28 06:51:03;;;;;;;3.72;1.02;;;;;;;;;;4972029;28;20237;-41
2022/01/28 06:53:30;;;;;;;3.60;1.10;;;;;;;;;;4972100;28;20741;-40
2022/01/28 06:55:57;;;;;;;3.63;1.05;;;;;;;;;;4972294;28;20213;-39
2022/01/28 06:58:24;;;;;;;3.55;1.27;;;;;;;;;;4971353;28;20239;-41
2022/01/28 07:00:51;;;;;;;4.00;1.17;;;;;;;;;;4978196;28;20239;-42
2022/01/28 07:03:18;;;;;;;2.63;0.80;;;;;;;;;;4980711;28;20241;-38
2022/01/28 07:05:46;;;;;;;4.28;1.00;;;;;;;;;;4972236;28;20224;-38
2022/01/28 07:08:12;;;;;;;3.75;1.30;;;;;;;;;;4971295;28;20232;-41
2022/01/28 07:10:39;;;;;;;3.58;1.30;;;;;;;;;;4961021;28;20229;-40
2022/01/28 07:13:06;;;;;;;3.50;0.77;;;;;;;;;;4952795;28;20228;-35
2022/01/28 07:15:33;;;;;;;3.45;1.08;;;;;;;;;;4969382;28;20726;-37
2022/01/28 07:18:02;;;;;;;3.45;0.85;;;;;;;;;;4991520;28;20747;-42
2022/01/28 07:20:29;;;;;;;4.95;1.10;;;;;;;;;;4971625;28;20239;-37
2022/01/28 07:22:56;;;;;;;4.88;1.25;;;;;;;;;;4972419;28;20251;-40
2022/01/28 07:25:23;;;;;;;2.80;0.70;;;;;;;;;;4975191;28;20231;-38
2022/01/28 07:27:50;;;;;;;3.88;1.27;;;;;;;;;;4975013;28;20233;-43
2022/01/28 07:30:17;;;;;;;3.53;1.02;;;;;;;;;;4976009;28;20233;-37
2022/01/28 07:32:44;;;;;;;3.42;0.93;;;;;;;;;;4978729;28;20224;-36
2022/01/28 07:35:11;;;;;;;2.95;1.08;;;;;;;;;;4975147;28;20704;-38
2022/01/28 07:37:38;;;;;;;2.63;1.13;;;;;;;;;;4975380;28;20319;-39
2022/01/28 07:40:05;;;;;;;1.88;0.70;;;;;;;;;;4974233;28;20243;-43
2022/01/28 07:42:35;;;;;;;3.47;1.20;;;;;;;;;;4973831;28;20723;-40
2022/01/28 07:45:02;;;;;;;5.22;1.08;;;;;;;;;;4974394;28;20239;-36
2022/01/28 07:47:29;;;;;;;4.13;1.30;;;;;;;;;;4972199;28;20239;-39
2022/01/28 07:49:56;;;;;;;4.15;1.02;;;;;;;;;;4977135;28;20248;-44
2022/01/28 07:52:23;;;;;;;2.95;1.00;;;;;;;;;;4973827;28;20880;-38
2022/01/28 07:54:50;;;;;;;4.50;1.15;;;;;;;;;;4976960;28;20692;-36
2022/01/28 07:57:17;;;;;;;1.90;0.95;;;;;;;;;;4974171;28;20233;-39
2022/01/28 07:59:44;;;;;;;4.05;1.08;;;;;;;;;;4976888;28;20236;-43
2022/01/28 08:02:11;;;;;;;3.40;1.00;;;;;;;;;;4963247;28;20814;-37
2022/01/28 08:04:39;;;;;;;2.20;1.00;;;;;;;;;;4973088;28;20225;-39
2022/01/28 08:07:06;;;;;;;3.63;1.13;;;;;;;;;;4973551;28;21130;-36
2022/01/28 08:09:33;;;;;;;3.03;0.90;;;;;;;;;;4974024;28;20233;-36
2022/01/28 08:12:00;;;;;;;3.08;1.00;;;;;;;;;;4973798;28;20233;-36
2022/01/28 08:14:27;;;;;;;2.80;0.90;;;;;;;;;;4975682;28;20236;-33
2022/01/28 08:16:55;;;;;;;3.30;1.00;;;;;;;;;;4975769;28;20618;-35
2022/01/28 08:19:22;;;;;;;2.95;1.00;;;;;;;;;;4976642;28;20232;-37
2022/01/28 08:21:49;;;;;;;3.50;1.17;;;;;;;;;;4973318;28;20248;-41
2022/01/28 08:24:16;;;;;;;2.80;1.10;;;;;;;;;;4971189;28;20755;-37
2022/01/28 08:26:44;;;;;;;3.13;1.08;;;;;;;;;;4974798;28;20237;-40
2022/01/28 08:29:11;;;;;;;4.72;0.95;;;;;;;;;;4969124;28;21040;-39
2022/01/28 08:31:38;;;;;;;6.03;1.40;;;;;;;;;;4963769;28;20343;-37
2022/01/28 08:34:05;;;;;;;3.70;1.13;;;;;;;;;;4958220;28;20673;-41
2022/01/28 08:36:33;;;;;;;4.28;1.10;;;;;;;;;;4972869;28;20228;-40
2022/01/28 08:39:00;;;;;;;2.97;1.10;;;;;;;;;;4973458;28;20229;-38
2022/01/28 08:41:27;;;;;;;4.80;1.20;;;;;;;;;;4973309;28;20244;-39
2022/01/28 08:43:54;;;;;;;6.03;1.15;;;;;;;;;;4973682;28;20229;-40
2022/01/28 08:46:21;;;;;;;2.63;0.93;;;;;;;;;;4974273;28;20312;-39
2022/01/28 08:48:49;;;;;;;4.10;0.98;;;;;;;;;;4973423;28;20323;-38
2022/01/28 08:51:16;;;;;;;4.25;1.38;;;;;;;;;;4972377;28;20332;-41
2022/01/28 08:53:43;;;;;;;4.63;1.23;;;;;;;;;;4970546;28;20997;-40
2022/01/28 08:56:09;;;;;;;4.05;1.10;;;;;;;;;;4972561;28;20243;-41
2022/01/28 08:58:37;;;;;;;6.30;1.13;;;;;;;;;;4972533;28;20232;-40
2022/01/28 09:01:03;;;;;;;4.85;1.50;;;;;;;;;;4974855;28;21052;-38
2022/01/28 09:03:32;;;;;;;7.10;1.00;;;;;;;;;;4972939;28;20237;-41
2022/01/28 09:05:59;;;;;;;5.35;1.13;;;;;;;;;;4973464;28;20233;-39
2022/01/28 09:08:26;;;;;;;3.35;1.10;;;;;;;;;;4972648;28;20232;-37
2022/01/28 09:10:58;;;;;;;9.27;1.83;;;;;;;;;;4973255;28;20233;-44
2022/01/28 09:13:37;;;;;;;6.90;1.55;;;;;;;;;;4973079;28;20734;-44
2022/01/28 09:16:04;;;;;;;10.00;1.40;;;;;;;;;;4980935;28;21119;-47
2022/01/28 09:18:31;;;;;;;8.20;1.50;;;;;;;;;;4992422;28;20255;-44
2022/01/28 09:20:58;;;;;;;11.60;1.85;;;;;;;;;;4968424;28;20244;-40
2022/01/28 09:23:25;;;;;;;10.00;2.10;;;;;;;;;;4971982;28;20535;-43
2022/01/28 09:25:53;;;;;;;12.77;1.80;;;;;;;;;;4973322;28;20224;-34
2022/01/28 09:28:20;;;;;;;13.20;1.80;;;;;;;;;;4974101;28;20260;-34
2022/01/28 09:30:47;;;;;;;18.20;1.85;;;;;;;;;;4974338;28;20237;-35
2022/01/28 09:33:14;;;;;;;14.63;2.08;;;;;;;;;;4975681;28;20811;-33
2022/01/28 09:35:44;;;;;;;14.40;2.42;;;;;;;;;;4977093;28;21037;-33
2022/01/28 09:38:11;;;;;;;12.50;2.50;;;;;;;;;;4975501;28;20243;-36
2022/01/28 09:40:38;;;;;;;16.05;2.55;;;;;;;;;;4973794;28;20247;-39
2022/01/28 09:43:07;;;;;;;13.13;2.93;;;;;;;;;;4973186;28;20428;-40
2022/01/28 09:45:34;;;;;;;13.77;2.10;;;;;;;;;;4978085;28;20742;-41
2022/01/28 09:48:01;;;;;;;16.60;1.92;;;;;;;;;;4993945;28;20216;-33
2022/01/28 09:50:28;;;;;;;12.95;2.40;;;;;;;;;;4995753;28;20215;-31
2022/01/28 09:52:55;;;;;;;16.65;3.08;;;;;;;;;;4976860;28;20239;-33
2022/01/28 09:55:23;;;;;;;14.93;2.72;;;;;;;;;;4973396;28;20219;-44
2022/01/28 09:57:50;;;;;;;17.58;2.67;;;;;;;;;;4972343;28;20759;-44
2022/01/28 10:00:17;;;;;;;10.57;1.98;;;;;;;;;;4974126;28;20609;-44
2022/01/28 10:02:44;;;;;;;17.70;2.65;;;;;;;;;;4972490;28;20236;-44
2022/01/28 10:05:11;;;;;;;17.02;2.50;;;;;;;;;;4971090;28;20232;-45
2022/01/28 10:07:38;;;;;;;11.88;2.15;;;;;;;;;;4972201;28;20244;-44
2022/01/28 10:10:07;;;;;;;10.77;2.40;;;;;;;;;;4962598;28;20248;-45
2022/01/28 10:12:44;;;;;;;9.60;1.95;;;;;;;;;;4970422;28;20476;-41
2022/01/28 10:15:19;;;;;;;12.65;2.72;;;;;;;;;;4972596;28;21030;-35
2022/01/28 10:17:46;;;;;;;14.23;2.15;;;;;;;;;;4991978;28;20234;-41
2022/01/28 10:20:13;;;;;;;11.32;2.25;;;;;;;;;;4992340;28;20216;-35
2022/01/28 10:22:39;;;;;;;8.20;1.50;;;;;;;;;;4991383;28;20334;-38
2022/01/28 10:25:16;;;;;;;8.07;1.85;;;;;;;;;;4989726;28;20233;-39
2022/01/28 10:27:43;;;;;;;7.03;2.13;;;;;;;;;;4972352;28;20225;-39
2022/01/28 10:30:10;;;;;;;8.27;2.38;;;;;;;;;;4973185;28;20232;-41
2022/01/28 10:32:37;;;;;;;8.65;2.00;;;;;;;;;;4991750;28;20224;-40
2022/01/28 10:35:04;;;;;;;12.40;2.30;;;;;;;;;;4991349;28;20234;-34
2022/01/28 10:37:32;;;;;;;6.82;1.83;;;;;;;;;;4979680;28;20984;-36
2022/01/28 10:40:00;;;;;;;11.38;1.80;;;;;;;;;;4972251;28;20232;-35
2022/01/28 10:42:27;;;;;;;7.85;1.77;;;;;;;;;;4972125;28;20244;-35
2022/01/28 10:44:54;;;;;;;10.32;1.67;;;;;;;;;;4972155;28;20228;-40
2022/01/28 10:47:21;;;;;;;10.07;1.77;;;;;;;;;;4987435;28;20311;-42
2022/01/28 10:49:48;;;;;;;10.82;2.28;;;;;;;;;;4972028;28;20268;-42
2022/01/28 10:52:15;;;;;;;7.75;1.85;;;;;;;;;;4971802;28;20327;-42
2022/01/28 10:54:42;;;;;;;7.57;2.10;;;;;;;;;;4971611;28;20460;-41
2022/01/28 10:57:09;;;;;;;11.98;2.30;;;;;;;;;;4971114;28;20421;-40
2022/01/28 10:59:36;;;;;;;8.15;2.40;;;;;;;;;;4974229;28;20240;-35
2022/01/28 11:02:03;;;;;;;8.38;1.55;;;;;;;;;;4991118;28;20228;-35
2022/01/28 11:04:31;;;;;;;9.95;1.88;;;;;;;;;;4987242;28;20237;-35
2022/01/28 11:06:58;;;;;;;10.32;1.80;;;;;;;;;;4975204;28;20235;-42
2022/01/28 11:09:25;;;;;;;8.45;1.83;;;;;;;;;;4965430;28;20251;-35
2022/01/28 11:11:52;;;;;;;13.82;2.13;;;;;;;;;;4973199;28;20243;-36
2022/01/28 11:14:19;;;;;;;9.30;1.88;;;;;;;;;;4969283;28;20243;-42
2022/01/28 11:16:46;;;;;;;8.02;1.90;;;;;;;;;;4970263;28;20235;-42
2022/01/28 11:19:13;;;;;;;9.50;2.47;;;;;;;;;;4970260;28;20251;-37
2022/01/28 11:21:40;;;;;;;7.10;1.85;;;;;;;;;;4969299;28;20323;-37
2022/01/28 11:24:07;;;;;;;7.20;2.13;;;;;;;;;;4969950;28;20247;-41
2022/01/28 11:26:35;;;;;;;4.68;1.40;;;;;;;;;;4973237;28;20224;-42
2022/01/28 11:29:03;;;;;;;8.05;1.80;;;;;;;;;;4971031;28;20345;-42
2022/01/28 11:31:30;;;;;;;6.95;1.50;;;;;;;;;;4969418;28;20244;-39
2022/01/28 11:33:57;;;;;;;7.85;1.80;;;;;;;;;;4970985;28;21094;-40
2022/01/28 11:36:24;;;;;;;7.95;2.13;;;;;;;;;;4969952;28;20232;-41
2022/01/28 11:38:51;;;;;;;10.07;2.00;;;;;;;;;;4970750;28;20236;-37
2022/01/28 11:41:18;;;;;;;6.85;1.70;;;;;;;;;;4970028;28;20260;-39
2022/01/28 11:43:45;;;;;;;7.22;2.00;;;;;;;;;;4969589;28;20248;-43
2022/01/28 11:46:12;;;;;;;9.90;2.10;;;;;;;;;;4970020;28;20233;-33
2022/01/28 11:48:39;;;;;;;12.65;1.95;;;;;;;;;;4969470;28;21002;-40
2022/01/28 11:51:06;;;;;;;9.32;1.58;;;;;;;;;;4969778;28;20970;-39
2022/01/28 11:53:33;;;;;;;7.55;2.45;;;;;;;;;;4969328;28;20232;-44
2022/01/28 11:56:00;;;;;;;8.82;2.38;;;;;;;;;;4970171;28;20236;-40
2022/01/28 11:58:27;;;;;;;6.82;1.83;;;;;;;;;;4970222;28;21083;-45
2022/01/28 12:00:55;;;;;;;7.60;1.75;;;;;;;;;;4971057;28;20638;-41
2022/01/28 12:03:22;;;;;;;8.98;2.15;;;;;;;;;;4969565;28;20236;-45
2022/01/28 12:05:50;;;;;;;7.85;2.05;;;;;;;;;;4970526;28;20710;-42
2022/01/28 12:08:17;;;;;;;8.18;2.22;;;;;;;;;;4968113;28;20241;-35
2022/01/28 12:10:45;;;;;;;5.88;2.10;;;;;;;;;;4969358;28;20236;-33
2022/01/28 12:13:12;;;;;;;6.68;1.50;;;;;;;;;;4968647;28;20236;-34
2022/01/28 12:15:39;;;;;;;9.20;1.85;;;;;;;;;;4969757;28;21025;-32
2022/01/28 12:18:06;;;;;;;10.70;2.05;;;;;;;;;;4964970;28;20264;-33
2022/01/28 12:20:37;;;;;;;5.10;1.73;;;;;;;;;;4969372;28;20347;-34
2022/01/28 12:23:04;;;;;;;6.90;2.10;;;;;;;;;;4969305;28;21079;-45
2022/01/28 12:25:31;;;;;;;8.77;2.47;;;;;;;;;;4967939;28;20433;-35
2022/01/28 12:27:58;;;;;;;6.10;2.13;;;;;;;;;;4970076;28;20237;-34
2022/01/28 12:30:25;;;;;;;6.75;1.80;;;;;;;;;;4969881;28;20725;-41
2022/01/28 12:32:52;;;;;;;10.68;2.47;;;;;;;;;;4971226;28;20229;-36
2022/01/28 12:35:19;;;;;;;8.25;1.80;;;;;;;;;;4967801;28;20256;-40
2022/01/28 12:37:58;;;;;;;9.20;2.20;;;;;;;;;;4967731;28;20259;-39
2022/01/28 12:40:25;;;;;;;10.52;2.05;;;;;;;;;;4968827;28;20786;-40
2022/01/28 12:42:52;;;;;;;9.90;1.60;;;;;;;;;;4970169;28;20299;-39
2022/01/28 12:45:19;;;;;;;8.45;2.45;;;;;;;;;;4967297;28;20239;-42
2022/01/28 12:47:46;;;;;;;8.77;2.08;;;;;;;;;;4962978;28;20299;-38
2022/01/28 12:50:13;;;;;;;5.80;2.10;;;;;;;;;;4957678;28;20241;-41
2022/01/28 12:52:40;;;;;;;7.45;2.40;;;;;;;;;;4962495;28;20316;-45
2022/01/28 12:55:07;;;;;;;8.43;2.42;;;;;;;;;;4966896;28;20417;-44
2022/01/28 12:57:34;;;;;;;7.78;2.60;;;;;;;;;;4956468;28;20321;-42
2022/01/28 13:00:01;;;;;;;8.15;2.60;;;;;;;;;;4962293;28;20248;-46
2022/01/28 13:02:29;;;;;;;7.53;2.38;;;;;;;;;;4970342;28;20237;-46
2022/01/28 13:10:19;;;;;;;7.93;2.20;;;;;;;;;;4966524;28;20241;-43
2022/01/28 13:12:46;;;;;;;8.07;2.53;;;;;;;;;;4970585;28;20240;-44
2022/01/28 13:15:13;;;;;;;6.00;2.10;;;;;;;;;;4969546;28;20311;-43
2022/01/28 13:17:41;;;;;;;9.57;2.55;;;;;;;;;;4971163;28;20236;-44
2022/01/28 13:20:09;;;;;;;6.72;2.17;;;;;;;;;;4968401;28;20248;-43
2022/01/28 13:22:36;;;;;;;8.10;2.08;;;;;;;;;;4964894;28;20247;-44
2022/01/28 13:25:03;;;;;;;7.85;2.40;;;;;;;;;;4969398;28;20236;-45
2022/01/28 13:27:30;;;;;;;4.93;2.08;;;;;;;;;;4968096;28;20257;-45
2022/01/28 13:29:57;;;;;;;7.38;2.22;;;;;;;;;;4970716;28;20954;-45
2022/01/28 13:32:26;;;;;;;7.50;2.15;;;;;;;;;;4966582;28;20325;-44
2022/01/28 13:34:53;;;;;;;8.77;2.08;;;;;;;;;;4963220;28;20239;-44
2022/01/28 13:37:20;;;;;;;8.57;2.08;;;;;;;;;;4968949;28;21046;-45
2022/01/28 13:39:47;;;;;;;5.18;1.88;;;;;;;;;;4968816;28;20284;-45
2022/01/28 13:42:15;;;;;;;9.18;2.05;;;;;;;;;;4969276;28;20239;-44
2022/01/28 13:44:43;;;;;;;6.18;1.83;;;;;;;;;;4967205;28;20245;-41
2022/01/28 13:47:12;;;;;;;7.57;1.80;;;;;;;;;;4972789;28;20787;-42
2022/01/28 13:49:39;;;;;;;7.40;2.10;;;;;;;;;;4966703;28;20928;-43
2022/01/28 13:52:12;;;;;;;4.40;1.67;;;;;;;;;;4969838;28;20327;-45
2022/01/28 13:54:39;;;;;;;7.68;2.13;;;;;;;;;;4966135;28;20239;-45
2022/01/28 13:57:06;;;;;;;5.28;1.48;;;;;;;;;;4970582;28;20231;-44
2022/01/28 13:59:33;;;;;;;7.30;1.80;;;;;;;;;;4967704;28;20332;-44
2022/01/28 14:02:00;;;;;;;6.70;1.70;;;;;;;;;;4968459;28;20735;-42
2022/01/28 14:04:32;;;;;;;6.55;2.00;;;;;;;;;;4968459;28;20252;-44
2022/01/28 14:06:59;;;;;;;6.65;1.63;;;;;;;;;;4963965;28;20241;-43
2022/01/28 14:09:31;;;;;;;7.22;1.90;;;;;;;;;;4969717;28;20760;-46
2022/01/28 14:12:01;;;;;;;6.43;1.85;;;;;;;;;;4968243;28;20233;-42
2022/01/28 14:14:32;;;;;;;6.05;1.80;;;;;;;;;;4970536;28;20229;-42
2022/01/28 14:17:04;;;;;;;5.38;1.88;;;;;;;;;;4968231;28;20965;-39
2022/01/28 14:19:31;;;;;;;6.68;1.75;;;;;;;;;;4968898;28;20260;-44
2022/01/28 14:21:58;;;;;;;9.70;2.45;;;;;;;;;;4970330;28;20245;-44
2022/01/28 14:24:31;;;;;;;6.40;1.70;;;;;;;;;;4968306;28;20249;-45
2022/01/28 14:32:04;;;;;;;8.07;2.00;;;;;;;;;;4969864;28;20233;-40
2022/01/28 14:34:31;;;;;;;2.75;1.27;;;;;;;;;;4970429;28;20236;-42
2022/01/28 14:36:58;;;;;;;4.35;1.38;;;;;;;;;;4973110;28;20241;-45
2022/01/28 14:39:25;;;;;;;3.08;1.25;;;;;;;;;;4970387;28;20244;-46
2022/01/28 14:41:55;;;;;;;5.60;1.60;;;;;;;;;;4971304;28;21019;-41
2022/01/28 14:44:22;;;;;;;6.05;1.50;;;;;;;;;;4971817;28;20244;-40
2022/01/28 14:46:49;;;;;;;4.75;1.50;;;;;;;;;;4973850;28;20233;-44
2022/01/28 14:49:16;;;;;;;8.43;1.83;;;;;;;;;;4972463;28;20605;-42
2022/01/28 14:51:50;;;;;;;4.72;1.40;;;;;;;;;;4969433;28;20243;-41
2022/01/28 14:54:17;;;;;;;5.68;1.67;;;;;;;;;;4972356;28;20243;-44
2022/01/28 14:56:44;;;;;;;6.97;1.73;;;;;;;;;;4968818;28;21302;-45
2022/01/28 14:59:11;;;;;;;5.57;1.33;;;;;;;;;;4963030;28;20237;-46
2022/01/28 15:01:38;;;;;;;9.02;1.65;;;;;;;;;;4962953;28;20233;-45
2022/01/28 15:04:06;;;;;;;7.68;1.80;;;;;;;;;;4970855;28;20291;-44
2022/01/28 15:06:33;;;;;;;5.95;1.65;;;;;;;;;;4970479;28;20328;-46
2022/01/28 15:09:02;;;;;;;7.70;1.85;;;;;;;;;;4970931;28;20236;-46
2022/01/28 15:11:43;;;;;;;9.13;1.55;;;;;;;;;;4971477;28;20232;-45
2022/01/28 15:14:10;;;;;;;6.20;1.80;;;;;;;;;;4970183;28;20240;-45
2022/01/28 15:16:37;;;;;;;6.32;1.48;;;;;;;;;;4965499;28;20237;-45
2022/01/28 15:19:04;;;;;;;6.97;1.50;;;;;;;;;;4965182;28;21122;-50
2022/01/28 15:21:31;;;;;;;10.30;1.60;;;;;;;;;;4970957;28;20248;-47
2022/01/28 15:23:59;;;;;;;5.38;1.70;;;;;;;;;;4970553;28;20255;-44
2022/01/28 15:26:25;;;;;;;6.13;1.70;;;;;;;;;;4971087;28;20271;-46
2022/01/28 15:29:03;;;;;;;4.20;1.50;;;;;;;;;;4972192;28;20792;-46
2022/01/28 15:34:37;;;;;;;5.90;1.63;;;;;;;;;;4971707;28;20244;-41
2022/01/28 15:37:04;;;;;;;6.68;1.52;;;;;;;;;;4970145;28;20300;-45
2022/01/28 15:39:35;;;;;;;9.63;1.85;;;;;;;;;;4964390;28;20233;-45
2022/01/28 15:42:02;;;;;;;4.65;1.27;;;;;;;;;;4961389;28;20237;-45
2022/01/28 15:44:29;;;;;;;5.50;1.95;;;;;;;;;;4961949;28;20244;-48
2022/01/28 15:46:56;;;;;;;9.32;1.20;;;;;;;;;;4968491;28;20236;-47
2022/01/28 15:49:23;;;;;;;8.43;1.88;;;;;;;;;;4964438;28;20221;-47
2022/01/28 15:51:50;;;;;;;5.18;1.63;;;;;;;;;;4963948;28;20872;-47
2022/01/28 15:54:17;;;;;;;6.60;1.52;;;;;;;;;;4961836;28;20244;-46
2022/01/28 15:56:44;;;;;;;6.15;1.30;;;;;;;;;;4962277;28;20237;-46
2022/01/28 15:59:11;;;;;;;5.20;1.50;;;;;;;;;;4963008;28;20247;-45
2022/01/28 16:01:38;;;;;;;5.47;2.00;;;;;;;;;;4975037;28;20228;-46
2022/01/28 16:04:05;;;;;;;8.40;1.80;;;;;;;;;;4975808;28;20240;-46
2022/01/28 16:06:33;;;;;;;5.55;1.52;;;;;;;;;;4976722;28;20229;-46
2022/01/28 16:09:03;;;;;;;8.15;1.90;;;;;;;;;;4976570;28;20245;-46
2022/01/28 16:11:33;;;;;;;6.55;1.60;;;;;;;;;;4975200;28;20315;-47